createdAt,value
2022-12-08T00:00:25.917Z,2.10
2022-12-08T00:05:46.291Z,2.10
2022-12-08T00:10:50.417Z,2.43
2022-12-08T00:15:53.239Z,2.07
2022-12-08T00:20:56.838Z,2.50
2022-12-08T00:26:04.461Z,1.83
2022-12-08T00:31:10.843Z,2.00
2022-12-08T00:36:14.813Z,2.60
2022-12-08T00:41:40.567Z,2.20
2022-12-08T00:46:44.409Z,2.43
2022-12-08T00:51:47.423Z,2.13
2022-12-08T00:56:51.537Z,2.17
2022-12-08T01:01:54.399Z,2.40
2022-12-08T01:06:57.142Z,2.10
2022-12-08T01:12:01.416Z,2.53
2022-12-08T01:17:04.445Z,1.87
2022-12-08T01:22:07.246Z,1.70
2022-12-08T01:27:12.209Z,1.87
2022-12-08T01:32:14.911Z,1.80
2022-12-08T01:37:17.713Z,1.90
2022-12-08T01:42:23.725Z,2.37
2022-12-08T01:47:30.904Z,2.30
2022-12-08T01:52:36.671Z,2.00
2022-12-08T01:57:44.800Z,2.70
2022-12-08T02:02:53.568Z,2.53
2022-12-08T02:07:57.426Z,2.20
2022-12-08T02:13:02.116Z,2.23
2022-12-08T02:18:16.010Z,1.90
2022-12-08T02:23:25.983Z,2.10
2022-12-08T02:28:49.756Z,2.30
2022-12-08T02:34:09.032Z,2.50
2022-12-08T02:39:23.349Z,2.30
2022-12-08T02:44:30.019Z,2.47
2022-12-08T02:49:35.968Z,2.60
2022-12-08T02:54:39.892Z,2.40
2022-12-08T02:59:57.511Z,2.67
2022-12-08T03:05:06.635Z,2.67
2022-12-08T03:10:11.974Z,2.37
2022-12-08T03:15:17.392Z,2.50
2022-12-08T03:20:23.163Z,2.50
2022-12-08T03:25:28.465Z,2.40
2022-12-08T03:30:33.806Z,2.77
2022-12-08T03:35:39.941Z,2.70
2022-12-08T03:40:42.973Z,2.93
2022-12-08T03:45:45.860Z,2.63
2022-12-08T03:50:49.915Z,2.77
2022-12-08T03:55:54.079Z,2.37
2022-12-08T04:00:56.952Z,2.20
2022-12-08T04:06:01.040Z,2.67
2022-12-08T04:11:03.841Z,2.50
2022-12-08T04:16:07.323Z,2.17
2022-12-08T04:21:11.597Z,2.50
2022-12-08T04:26:15.390Z,2.47
2022-12-08T04:31:18.249Z,2.50
2022-12-08T04:36:22.429Z,3.10
2022-12-08T04:41:25.345Z,2.43
2022-12-08T04:46:28.130Z,2.13
2022-12-08T04:51:32.346Z,2.83
2022-12-08T04:56:35.247Z,2.43
2022-12-08T05:01:38.064Z,2.60
2022-12-08T05:06:42.220Z,3.00
2022-12-08T05:11:48.883Z,2.97
2022-12-08T05:16:52.131Z,2.67
2022-12-08T05:21:56.317Z,3.00
2022-12-08T05:26:59.072Z,3.20
2022-12-08T05:32:02.019Z,2.80
2022-12-08T05:37:06.136Z,2.80
2022-12-08T05:42:08.934Z,2.47
2022-12-08T05:47:11.649Z,2.70
2022-12-08T05:52:16.834Z,2.93
2022-12-08T05:57:19.651Z,2.83
2022-12-08T06:02:22.577Z,2.80
2022-12-08T06:07:26.722Z,3.00
2022-12-08T06:12:29.471Z,3.13
2022-12-08T06:17:32.205Z,2.73
2022-12-08T06:22:36.472Z,2.37
2022-12-08T06:27:39.265Z,2.80
2022-12-08T06:32:41.995Z,3.13
2022-12-08T06:37:46.085Z,2.60
2022-12-08T06:42:48.803Z,2.27
2022-12-08T06:47:51.748Z,2.80
2022-12-08T06:53:03.105Z,2.50
2022-12-08T06:58:08.043Z,2.30
2022-12-08T07:03:11.548Z,2.57
2022-12-08T07:08:15.772Z,2.80
2022-12-08T07:13:18.680Z,2.40
2022-12-08T07:18:21.487Z,2.53
2022-12-08T07:23:25.618Z,2.43
2022-12-08T07:28:28.541Z,2.70
2022-12-08T07:33:31.493Z,3.23
2022-12-08T07:38:35.594Z,2.90
2022-12-08T07:43:38.352Z,2.83
2022-12-08T07:48:41.309Z,3.00
2022-12-08T07:53:53.237Z,2.77
2022-12-08T07:58:56.774Z,2.67
2022-12-08T08:04:01.793Z,2.70
2022-12-08T08:09:06.008Z,2.97
2022-12-08T08:14:08.768Z,3.20
2022-12-08T08:19:11.645Z,3.33
2022-12-08T08:24:15.864Z,2.97
2022-12-08T08:29:18.785Z,3.30
2022-12-08T08:34:21.758Z,3.30
2022-12-08T08:39:25.894Z,3.10
2022-12-08T08:44:28.827Z,2.97
2022-12-08T08:49:31.565Z,3.00
2022-12-08T08:54:35.764Z,2.70
2022-12-08T08:59:38.537Z,3.00
2022-12-08T09:04:41.303Z,2.93
2022-12-08T09:09:45.475Z,2.90
2022-12-08T09:14:48.306Z,3.20
2022-12-08T09:19:51.055Z,2.73
2022-12-08T09:24:55.228Z,3.63
2022-12-08T09:29:58.177Z,3.60
2022-12-08T09:35:01.478Z,3.40
2022-12-08T09:40:07.411Z,3.83
2022-12-08T09:45:12.401Z,3.50
2022-12-08T09:50:18.235Z,3.70
2022-12-08T09:55:26.231Z,4.10
2022-12-08T10:00:28.957Z,4.17
2022-12-08T10:05:38.170Z,5.43
2022-12-08T10:10:44.588Z,5.00
2022-12-08T10:15:54.456Z,5.37
2022-12-08T10:21:00.317Z,4.77
2022-12-08T10:26:06.582Z,4.93
2022-12-08T10:31:16.261Z,4.47
2022-12-08T10:36:19.200Z,4.87
2022-12-08T10:41:23.998Z,5.20
2022-12-08T10:46:28.287Z,4.90
2022-12-08T10:51:37.383Z,5.13
2022-12-08T10:56:45.598Z,4.60
2022-12-08T11:01:49.757Z,4.50
2022-12-08T11:06:52.998Z,4.10
2022-12-08T11:11:59.047Z,4.17
2022-12-08T11:17:05.801Z,4.13
2022-12-08T11:22:22.957Z,4.13
2022-12-08T11:27:27.395Z,4.27
2022-12-08T11:32:30.150Z,4.60
2022-12-08T11:37:39.306Z,4.33
2022-12-08T11:42:50.322Z,4.30
2022-12-08T11:47:59.474Z,3.93
2022-12-08T11:53:02.767Z,3.93
2022-12-08T11:58:23.857Z,4.30
2022-12-08T12:03:30.306Z,4.30
2022-12-08T12:08:42.504Z,3.53
2022-12-08T12:13:59.386Z,3.97
2022-12-08T12:19:04.838Z,3.87
2022-12-08T12:24:09.587Z,3.63
2022-12-08T12:29:18.643Z,3.00
2022-12-08T12:34:23.254Z,3.10
2022-12-08T12:39:28.311Z,3.50
2022-12-08T12:44:43.366Z,3.67
2022-12-08T12:50:14.664Z,3.30
2022-12-08T12:55:55.511Z,3.40
2022-12-08T13:01:31.663Z,3.53
2022-12-08T13:06:37.520Z,3.73
2022-12-08T13:11:51.343Z,3.47
2022-12-08T13:16:55.796Z,3.50
2022-12-08T13:21:58.724Z,3.17
2022-12-08T13:27:33.614Z,3.17
2022-12-08T13:33:17.190Z,3.30
2022-12-08T13:38:20.720Z,3.20
2022-12-08T13:43:47.422Z,3.73
2022-12-08T13:50:32.388Z,3.13
2022-12-08T13:59:46.295Z,2.77
2022-12-08T14:10:18.730Z,3.57
2022-12-08T14:15:23.493Z,3.17
2022-12-08T14:20:27.872Z,3.40
2022-12-08T14:25:30.945Z,2.90
2022-12-08T14:30:36.188Z,3.10
2022-12-08T14:35:40.106Z,2.80
2022-12-08T14:40:44.046Z,2.43
2022-12-08T14:45:53.378Z,3.20
2022-12-08T14:51:00.215Z,3.03
2022-12-08T14:56:03.219Z,2.77
2022-12-08T15:01:10.263Z,2.50
2022-12-08T15:06:13.257Z,2.80
2022-12-08T15:11:28.648Z,2.67
2022-12-08T15:16:39.779Z,2.60
2022-12-08T15:21:42.876Z,2.67
2022-12-08T15:26:47.384Z,2.87
2022-12-08T15:31:53.130Z,2.90
2022-12-08T15:36:56.278Z,3.07
2022-12-08T15:41:59.572Z,3.50
2022-12-08T15:47:04.065Z,3.37
2022-12-08T15:52:11.825Z,3.23
2022-12-08T15:57:35.868Z,2.53
2022-12-08T16:03:15.505Z,4.17
2022-12-08T16:08:30.176Z,3.30
2022-12-08T16:13:57.064Z,2.37
2022-12-08T16:19:01.803Z,2.50
2022-12-08T16:24:09.185Z,2.97
2022-12-08T16:29:18.718Z,2.80
2022-12-08T16:34:22.906Z,2.80
2022-12-08T16:39:25.647Z,3.60
2022-12-08T16:44:28.449Z,3.10
2022-12-08T16:49:32.844Z,4.40
2022-12-08T16:54:35.891Z,3.23
2022-12-08T16:59:38.958Z,2.80
2022-12-08T17:04:43.117Z,2.63
2022-12-08T17:09:45.978Z,3.07
2022-12-08T17:14:48.729Z,3.20
2022-12-08T17:19:52.868Z,3.30
2022-12-08T17:24:55.682Z,3.03
2022-12-08T17:29:58.683Z,2.47
2022-12-08T17:35:03.289Z,2.00
2022-12-08T17:40:07.979Z,2.93
2022-12-08T17:45:11.954Z,2.57
2022-12-08T17:50:16.040Z,2.13
2022-12-08T17:55:19.064Z,2.33
2022-12-08T18:00:22.067Z,2.40
2022-12-08T18:05:26.166Z,2.50
2022-12-08T18:10:29.233Z,2.40
2022-12-08T18:15:36.112Z,2.50
2022-12-08T18:20:43.521Z,2.77
2022-12-08T18:25:47.079Z,3.20
2022-12-08T18:30:49.939Z,2.67
2022-12-08T18:35:54.420Z,2.50
2022-12-08T18:40:57.436Z,3.10
2022-12-08T18:46:03.929Z,3.57
2022-12-08T18:51:12.084Z,3.27
2022-12-08T18:56:26.343Z,3.60
2022-12-08T19:01:29.262Z,3.30
2022-12-08T19:06:33.611Z,4.73
2022-12-08T19:11:36.418Z,3.67
2022-12-08T19:16:39.456Z,3.80
2022-12-08T19:21:46.497Z,4.50
2022-12-08T19:26:49.979Z,3.40
2022-12-08T19:31:52.895Z,3.77
2022-12-08T19:36:57.121Z,4.03
2022-12-08T19:42:17.608Z,9.07
2022-12-08T19:47:20.840Z,8.27
2022-12-08T19:52:25.107Z,5.97
2022-12-08T19:57:28.043Z,3.60
2022-12-08T20:02:30.891Z,3.83
2022-12-08T20:07:35.312Z,4.30
2022-12-08T20:12:38.032Z,3.40
2022-12-08T20:17:40.895Z,3.40
2022-12-08T20:22:46.044Z,3.90
2022-12-08T20:27:48.750Z,3.10
2022-12-08T20:32:51.558Z,3.03
2022-12-08T20:37:55.722Z,2.80
2022-12-08T20:42:58.595Z,3.17
2022-12-08T20:48:01.348Z,2.63
2022-12-08T20:53:06.262Z,3.33
2022-12-08T20:58:09.090Z,3.23
2022-12-08T21:03:13.138Z,3.60
2022-12-08T21:08:17.697Z,3.10
2022-12-08T21:13:20.851Z,3.03
2022-12-08T21:18:24.122Z,4.03
2022-12-08T21:23:28.663Z,4.27
2022-12-08T21:28:31.547Z,5.37
2022-12-08T21:33:34.544Z,8.87
2022-12-08T21:38:40.089Z,6.40
2022-12-08T21:43:43.444Z,4.40
2022-12-08T21:48:46.463Z,5.40
2022-12-08T21:53:50.804Z,6.00
2022-12-08T21:58:54.964Z,4.40
2022-12-08T22:03:58.019Z,5.37
2022-12-08T22:09:02.241Z,4.77
2022-12-08T22:14:08.363Z,3.77
2022-12-08T22:19:15.254Z,5.30
2022-12-08T22:24:19.499Z,4.90
2022-12-08T22:29:22.584Z,4.90
2022-12-08T22:34:25.355Z,5.93
2022-12-08T22:39:29.708Z,6.60
2022-12-08T22:44:32.480Z,6.03
2022-12-08T22:49:36.003Z,5.67
2022-12-08T22:54:40.502Z,5.77
2022-12-08T22:59:43.663Z,4.97
2022-12-08T23:04:47.282Z,5.87
2022-12-08T23:09:52.066Z,4.97
2022-12-08T23:14:55.021Z,5.07
2022-12-08T23:19:58.048Z,6.13
